sensor_id;sensor_type;location;lat;lon;timestamp;temperature;humidity
51914;DHT22;37940;53.002;6.930;2022-12-20T00:01:22;8.20;99.90
51914;DHT22;37940;53.002;6.930;2022-12-20T00:03:49;8.40;99.90
51914;DHT22;37940;53.002;6.930;2022-12-20T00:06:17;8.10;99.90
51914;DHT22;37940;53.002;6.930;2022-12-20T00:08:43;8.10;99.90
51914;DHT22;37940;53.002;6.930;2022-12-20T00:11:10;8.10;99.90
51914;DHT22;37940;53.002;6.930;2022-12-20T00:13:36;8.10;99.90
51914;DHT22;37940;53.002;6.930;2022-12-20T00:16:06;8.10;99.90
51914;DHT22;37940;53.002;6.930;2022-12-20T00:18:32;8.10;99.90
51914;DHT22;37940;53.002;6.930;2022-12-20T00:20:59;8.10;99.90
51914;DHT22;37940;53.002;6.930;2022-12-20T00:23:25;8.00;99.90
51914;DHT22;37940;53.002;6.930;2022-12-20T00:25:51;8.00;99.90
51914;DHT22;37940;53.002;6.930;2022-12-20T00:28:16;8.00;99.90
51914;DHT22;37940;53.002;6.930;2022-12-20T00:30:42;8.00;99.90
51914;DHT22;37940;53.002;6.930;2022-12-20T00:33:08;8.00;99.90
51914;DHT22;37940;53.002;6.930;2022-12-20T00:35:34;8.00;99.90
51914;DHT22;37940;53.002;6.930;2022-12-20T00:38:00;8.10;99.90
51914;DHT22;37940;53.002;6.930;2022-12-20T00:40:26;8.10;99.90
51914;DHT22;37940;53.002;6.930;2022-12-20T00:42:51;8.10;99.90
51914;DHT22;37940;53.002;6.930;2022-12-20T00:45:17;8.10;99.90
51914;DHT22;37940;53.002;6.930;2022-12-20T00:47:42;8.60;99.90
51914;DHT22;37940;53.002;6.930;2022-12-20T00:50:08;8.40;99.90
51914;DHT22;37940;53.002;6.930;2022-12-20T00:52:34;8.30;99.90
51914;DHT22;37940;53.002;6.930;2022-12-20T00:55:00;8.30;99.90
51914;DHT22;37940;53.002;6.930;2022-12-20T00:57:26;8.40;99.90
51914;DHT22;37940;53.002;6.930;2022-12-20T00:59:51;8.30;99.90
51914;DHT22;37940;53.002;6.930;2022-12-20T01:02:20;8.40;99.90
51914;DHT22;37940;53.002;6.930;2022-12-20T01:04:48;8.40;99.90
51914;DHT22;37940;53.002;6.930;2022-12-20T01:07:13;8.40;99.90
51914;DHT22;37940;53.002;6.930;2022-12-20T01:09:39;8.40;99.90
51914;DHT22;37940;53.002;6.930;2022-12-20T01:12:05;8.40;99.90
51914;DHT22;37940;53.002;6.930;2022-12-20T01:14:31;8.50;99.90
51914;DHT22;37940;53.002;6.930;2022-12-20T01:16:56;8.50;99.90
51914;DHT22;37940;53.002;6.930;2022-12-20T01:19:22;8.50;99.90
51914;DHT22;37940;53.002;6.930;2022-12-20T01:21:48;9.00;99.90
51914;DHT22;37940;53.002;6.930;2022-12-20T01:24:16;8.50;99.90
51914;DHT22;37940;53.002;6.930;2022-12-20T01:26:43;8.40;99.90
51914;DHT22;37940;53.002;6.930;2022-12-20T01:29:09;8.40;99.90
51914;DHT22;37940;53.002;6.930;2022-12-20T01:31:34;8.40;99.90
51914;DHT22;37940;53.002;6.930;2022-12-20T01:34:00;8.40;99.90
51914;DHT22;37940;53.002;6.930;2022-12-20T01:36:29;8.40;99.90
51914;DHT22;37940;53.002;6.930;2022-12-20T01:39:07;8.40;99.90
51914;DHT22;37940;53.002;6.930;2022-12-20T01:41:35;8.30;99.90
51914;DHT22;37940;53.002;6.930;2022-12-20T01:44:50;8.30;99.90
51914;DHT22;37940;53.002;6.930;2022-12-20T01:46:52;8.30;99.90
51914;DHT22;37940;53.002;6.930;2022-12-20T01:49:23;8.30;99.90
51914;DHT22;37940;53.002;6.930;2022-12-20T01:51:57;8.30;99.90
51914;DHT22;37940;53.002;6.930;2022-12-20T01:54:34;8.30;99.90
51914;DHT22;37940;53.002;6.930;2022-12-20T01:57:09;8.30;99.90
51914;DHT22;37940;53.002;6.930;2022-12-20T01:59:37;8.30;99.90
51914;DHT22;37940;53.002;6.930;2022-12-20T02:02:06;8.30;99.90
51914;DHT22;37940;53.002;6.930;2022-12-20T02:04:33;8.30;99.90
51914;DHT22;37940;53.002;6.930;2022-12-20T02:06:59;8.70;99.90
51914;DHT22;37940;53.002;6.930;2022-12-20T02:09:26;8.40;99.90
51914;DHT22;37940;53.002;6.930;2022-12-20T02:12:14;8.40;99.90
51914;DHT22;37940;53.002;6.930;2022-12-20T02:14:44;8.30;99.90
51914;DHT22;37940;53.002;6.930;2022-12-20T02:25:57;8.40;99.90
51914;DHT22;37940;53.002;6.930;2022-12-20T02:30:57;8.40;99.90
51914;DHT22;37940;53.002;6.930;2022-12-20T02:33:27;8.40;99.90
51914;DHT22;37940;53.002;6.930;2022-12-20T02:35:53;8.40;99.90
51914;DHT22;37940;53.002;6.930;2022-12-20T02:40:56;8.50;99.90
51914;DHT22;37940;53.002;6.930;2022-12-20T02:43:23;8.40;99.90
51914;DHT22;37940;53.002;6.930;2022-12-20T02:46:09;8.50;99.90
51914;DHT22;37940;53.002;6.930;2022-12-20T02:48:36;8.50;99.90
51914;DHT22;37940;53.002;6.930;2022-12-20T02:51:04;8.50;99.90
51914;DHT22;37940;53.002;6.930;2022-12-20T02:53:32;8.50;99.90
51914;DHT22;37940;53.002;6.930;2022-12-20T02:59:05;8.50;99.90
51914;DHT22;37940;53.002;6.930;2022-12-20T03:01:33;8.50;99.90
51914;DHT22;37940;53.002;6.930;2022-12-20T03:04:01;8.50;99.90
51914;DHT22;37940;53.002;6.930;2022-12-20T03:06:27;8.50;99.90
51914;DHT22;37940;53.002;6.930;2022-12-20T03:08:55;8.50;99.90
51914;DHT22;37940;53.002;6.930;2022-12-20T03:11:21;8.80;99.90
51914;DHT22;37940;53.002;6.930;2022-12-20T03:13:47;8.50;99.90
51914;DHT22;37940;53.002;6.930;2022-12-20T03:16:13;8.50;99.90
51914;DHT22;37940;53.002;6.930;2022-12-20T03:18:39;8.50;99.90
51914;DHT22;37940;53.002;6.930;2022-12-20T03:21:05;8.40;99.90
51914;DHT22;37940;53.002;6.930;2022-12-20T03:23:31;8.50;99.90
51914;DHT22;37940;53.002;6.930;2022-12-20T03:25:57;8.50;99.90
51914;DHT22;37940;53.002;6.930;2022-12-20T03:28:23;8.40;99.90
51914;DHT22;37940;53.002;6.930;2022-12-20T03:30:48;8.40;99.90
51914;DHT22;37940;53.002;6.930;2022-12-20T03:33:15;8.40;99.90
51914;DHT22;37940;53.002;6.930;2022-12-20T03:35:40;8.40;99.90
51914;DHT22;37940;53.002;6.930;2022-12-20T03:38:06;8.30;99.90
51914;DHT22;37940;53.002;6.930;2022-12-20T03:40:32;8.30;99.90
51914;DHT22;37940;53.002;6.930;2022-12-20T03:42:57;8.30;99.90
51914;DHT22;37940;53.002;6.930;2022-12-20T03:45:23;8.30;99.90
51914;DHT22;37940;53.002;6.930;2022-12-20T03:47:49;8.30;99.90
51914;DHT22;37940;53.002;6.930;2022-12-20T03:50:15;8.30;99.90
51914;DHT22;37940;53.002;6.930;2022-12-20T03:52:40;8.30;99.90
51914;DHT22;37940;53.002;6.930;2022-12-20T03:55:07;8.30;99.90
51914;DHT22;37940;53.002;6.930;2022-12-20T03:57:35;8.30;99.90
51914;DHT22;37940;53.002;6.930;2022-12-20T04:00:01;8.40;99.90
51914;DHT22;37940;53.002;6.930;2022-12-20T04:02:26;8.30;99.90
51914;DHT22;37940;53.002;6.930;2022-12-20T04:04:52;8.40;99.90
51914;DHT22;37940;53.002;6.930;2022-12-20T04:07:18;8.30;99.90
51914;DHT22;37940;53.002;6.930;2022-12-20T04:09:44;8.30;99.90
51914;DHT22;37940;53.002;6.930;2022-12-20T04:12:10;8.30;99.90
51914;DHT22;37940;53.002;6.930;2022-12-20T04:14:39;8.30;99.90
51914;DHT22;37940;53.002;6.930;2022-12-20T04:17:05;8.30;99.90
51914;DHT22;37940;53.002;6.930;2022-12-20T04:19:31;8.30;99.90
51914;DHT22;37940;53.002;6.930;2022-12-20T04:21:56;8.60;99.90
51914;DHT22;37940;53.002;6.930;2022-12-20T04:24:23;8.30;99.90
51914;DHT22;37940;53.002;6.930;2022-12-20T04:26:49;8.40;99.90
51914;DHT22;37940;53.002;6.930;2022-12-20T04:29:14;8.40;99.90
51914;DHT22;37940;53.002;6.930;2022-12-20T04:31:40;8.40;99.90
51914;DHT22;37940;53.002;6.930;2022-12-20T04:34:06;8.50;99.90
51914;DHT22;37940;53.002;6.930;2022-12-20T04:36:32;8.50;99.90
51914;DHT22;37940;53.002;6.930;2022-12-20T04:38:58;8.40;99.90
51914;DHT22;37940;53.002;6.930;2022-12-20T04:41:24;8.50;99.90
51914;DHT22;37940;53.002;6.930;2022-12-20T04:43:53;8.50;99.90
51914;DHT22;37940;53.002;6.930;2022-12-20T04:46:20;8.60;99.90
51914;DHT22;37940;53.002;6.930;2022-12-20T04:48:46;8.50;99.90
51914;DHT22;37940;53.002;6.930;2022-12-20T04:51:12;8.50;99.90
51914;DHT22;37940;53.002;6.930;2022-12-20T04:53:38;8.50;99.90
51914;DHT22;37940;53.002;6.930;2022-12-20T04:56:24;8.50;99.90
51914;DHT22;37940;53.002;6.930;2022-12-20T04:58:51;8.50;99.90
51914;DHT22;37940;53.002;6.930;2022-12-20T05:01:18;8.50;99.90
51914;DHT22;37940;53.002;6.930;2022-12-20T05:03:44;8.50;99.90
51914;DHT22;37940;53.002;6.930;2022-12-20T05:06:10;8.40;99.90
51914;DHT22;37940;53.002;6.930;2022-12-20T05:08:36;8.50;99.90
51914;DHT22;37940;53.002;6.930;2022-12-20T05:11:03;8.70;99.90
51914;DHT22;37940;53.002;6.930;2022-12-20T05:13:29;8.60;99.90
51914;DHT22;37940;53.002;6.930;2022-12-20T05:15:56;8.60;99.90
51914;DHT22;37940;53.002;6.930;2022-12-20T05:18:22;8.60;99.90
51914;DHT22;37940;53.002;6.930;2022-12-20T05:20:49;8.60;99.90
51914;DHT22;37940;53.002;6.930;2022-12-20T05:23:35;8.70;99.90
51914;DHT22;37940;53.002;6.930;2022-12-20T05:26:19;8.70;99.90
51914;DHT22;37940;53.002;6.930;2022-12-20T05:28:45;8.80;99.90
51914;DHT22;37940;53.002;6.930;2022-12-20T05:31:11;8.80;99.90
51914;DHT22;37940;53.002;6.930;2022-12-20T05:33:37;9.10;99.90
51914;DHT22;37940;53.002;6.930;2022-12-20T05:36:02;8.80;99.90
51914;DHT22;37940;53.002;6.930;2022-12-20T05:38:28;8.90;99.90
51914;DHT22;37940;53.002;6.930;2022-12-20T05:40:54;8.90;99.90
51914;DHT22;37940;53.002;6.930;2022-12-20T05:43:20;9.00;99.90
51914;DHT22;37940;53.002;6.930;2022-12-20T05:45:47;9.00;99.90
51914;DHT22;37940;53.002;6.930;2022-12-20T05:48:14;9.00;99.90
51914;DHT22;37940;53.002;6.930;2022-12-20T05:50:39;9.10;99.90
51914;DHT22;37940;53.002;6.930;2022-12-20T05:53:05;9.10;99.90
51914;DHT22;37940;53.002;6.930;2022-12-20T05:55:31;9.20;99.90
51914;DHT22;37940;53.002;6.930;2022-12-20T05:57:57;9.70;99.90
51914;DHT22;37940;53.002;6.930;2022-12-20T06:00:23;9.30;99.90
51914;DHT22;37940;53.002;6.930;2022-12-20T06:02:48;9.20;99.90
51914;DHT22;37940;53.002;6.930;2022-12-20T06:05:14;9.20;99.90
51914;DHT22;37940;53.002;6.930;2022-12-20T06:07:40;9.30;99.90
51914;DHT22;37940;53.002;6.930;2022-12-20T06:10:06;9.30;99.90
51914;DHT22;37940;53.002;6.930;2022-12-20T06:12:32;9.40;99.90
51914;DHT22;37940;53.002;6.930;2022-12-20T06:14:59;9.30;99.90
51914;DHT22;37940;53.002;6.930;2022-12-20T06:17:25;9.30;99.90
51914;DHT22;37940;53.002;6.930;2022-12-20T06:19:51;9.30;99.90
51914;DHT22;37940;53.002;6.930;2022-12-20T06:22:17;9.40;99.90
51914;DHT22;37940;53.002;6.930;2022-12-20T06:24:43;9.30;99.90
51914;DHT22;37940;53.002;6.930;2022-12-20T06:27:09;9.30;99.90
51914;DHT22;37940;53.002;6.930;2022-12-20T06:29:36;9.30;99.90
51914;DHT22;37940;53.002;6.930;2022-12-20T06:32:02;9.20;99.90
51914;DHT22;37940;53.002;6.930;2022-12-20T06:34:30;9.40;99.90
51914;DHT22;37940;53.002;6.930;2022-12-20T06:36:56;9.40;99.90
51914;DHT22;37940;53.002;6.930;2022-12-20T06:39:22;9.40;99.90
51914;DHT22;37940;53.002;6.930;2022-12-20T06:41:48;9.50;99.90
51914;DHT22;37940;53.002;6.930;2022-12-20T06:44:13;9.50;99.90
51914;DHT22;37940;53.002;6.930;2022-12-20T06:46:42;9.50;99.90
51914;DHT22;37940;53.002;6.930;2022-12-20T06:49:08;9.60;99.90
51914;DHT22;37940;53.002;6.930;2022-12-20T06:51:34;9.50;99.90
51914;DHT22;37940;53.002;6.930;2022-12-20T06:54:00;9.50;99.90
51914;DHT22;37940;53.002;6.930;2022-12-20T06:56:29;9.50;99.90
51914;DHT22;37940;53.002;6.930;2022-12-20T06:58:54;9.90;99.90
51914;DHT22;37940;53.002;6.930;2022-12-20T07:01:20;9.50;99.90
51914;DHT22;37940;53.002;6.930;2022-12-20T07:03:46;9.50;99.90
51914;DHT22;37940;53.002;6.930;2022-12-20T07:06:11;9.40;99.90
51914;DHT22;37940;53.002;6.930;2022-12-20T07:08:37;9.40;99.90
51914;DHT22;37940;53.002;6.930;2022-12-20T07:11:05;9.40;99.90
51914;DHT22;37940;53.002;6.930;2022-12-20T07:13:31;9.40;99.90
51914;DHT22;37940;53.002;6.930;2022-12-20T07:15:58;9.40;99.90
51914;DHT22;37940;53.002;6.930;2022-12-20T07:18:24;9.40;99.90
51914;DHT22;37940;53.002;6.930;2022-12-20T07:20:50;9.60;99.90
51914;DHT22;37940;53.002;6.930;2022-12-20T07:23:16;9.30;99.90
51914;DHT22;37940;53.002;6.930;2022-12-20T07:25:43;9.30;99.90
51914;DHT22;37940;53.002;6.930;2022-12-20T07:28:16;9.30;99.90
51914;DHT22;37940;53.002;6.930;2022-12-20T07:30:42;9.20;99.90
51914;DHT22;37940;53.002;6.930;2022-12-20T07:33:08;9.40;99.90
51914;DHT22;37940;53.002;6.930;2022-12-20T07:35:33;9.30;99.90
51914;DHT22;37940;53.002;6.930;2022-12-20T07:37:59;9.20;99.90
51914;DHT22;37940;53.002;6.930;2022-12-20T07:40:27;9.20;99.90
51914;DHT22;37940;53.002;6.930;2022-12-20T07:42:53;9.30;99.90
51914;DHT22;37940;53.002;6.930;2022-12-20T07:45:19;9.20;99.90
51914;DHT22;37940;53.002;6.930;2022-12-20T07:47:44;9.20;99.90
51914;DHT22;37940;53.002;6.930;2022-12-20T07:50:10;9.20;99.90
51914;DHT22;37940;53.002;6.930;2022-12-20T07:52:36;9.20;99.90
51914;DHT22;37940;53.002;6.930;2022-12-20T07:55:06;9.20;99.90
51914;DHT22;37940;53.002;6.930;2022-12-20T07:57:51;9.20;99.90
51914;DHT22;37940;53.002;6.930;2022-12-20T08:00:18;9.20;99.90
51914;DHT22;37940;53.002;6.930;2022-12-20T08:02:59;9.20;99.90
51914;DHT22;37940;53.002;6.930;2022-12-20T08:05:27;9.20;99.90
51914;DHT22;37940;53.002;6.930;2022-12-20T08:07:54;9.20;99.90
51914;DHT22;37940;53.002;6.930;2022-12-20T08:10:20;9.20;99.90
51914;DHT22;37940;53.002;6.930;2022-12-20T08:12:47;9.20;99.90
51914;DHT22;37940;53.002;6.930;2022-12-20T08:15:14;9.20;99.90
51914;DHT22;37940;53.002;6.930;2022-12-20T08:17:40;9.30;99.90
51914;DHT22;37940;53.002;6.930;2022-12-20T08:20:06;9.30;99.90
51914;DHT22;37940;53.002;6.930;2022-12-20T08:22:33;9.30;99.90
51914;DHT22;37940;53.002;6.930;2022-12-20T08:24:59;9.30;99.90
51914;DHT22;37940;53.002;6.930;2022-12-20T08:27:25;9.40;99.90
51914;DHT22;37940;53.002;6.930;2022-12-20T08:29:51;9.40;99.90
51914;DHT22;37940;53.002;6.930;2022-12-20T08:32:17;9.40;99.90
51914;DHT22;37940;53.002;6.930;2022-12-20T08:34:42;9.40;99.90
51914;DHT22;37940;53.002;6.930;2022-12-20T08:37:08;9.50;99.90
51914;DHT22;37940;53.002;6.930;2022-12-20T08:39:34;9.50;99.90
51914;DHT22;37940;53.002;6.930;2022-12-20T08:41:59;9.50;99.90
51914;DHT22;37940;53.002;6.930;2022-12-20T08:44:25;9.60;99.90
51914;DHT22;37940;53.002;6.930;2022-12-20T08:46:51;9.60;99.90
51914;DHT22;37940;53.002;6.930;2022-12-20T08:49:18;9.60;99.90
51914;DHT22;37940;53.002;6.930;2022-12-20T08:51:44;9.60;99.90
51914;DHT22;37940;53.002;6.930;2022-12-20T08:54:10;9.60;99.90
51914;DHT22;37940;53.002;6.930;2022-12-20T08:56:35;9.60;99.90
51914;DHT22;37940;53.002;6.930;2022-12-20T08:59:01;9.70;99.90
51914;DHT22;37940;53.002;6.930;2022-12-20T09:01:27;9.70;99.90
51914;DHT22;37940;53.002;6.930;2022-12-20T09:03:54;9.60;99.90
51914;DHT22;37940;53.002;6.930;2022-12-20T09:06:21;9.60;99.90
51914;DHT22;37940;53.002;6.930;2022-12-20T09:08:47;9.70;99.90
51914;DHT22;37940;53.002;6.930;2022-12-20T09:11:19;9.70;99.90
51914;DHT22;37940;53.002;6.930;2022-12-20T09:13:46;9.70;99.90
51914;DHT22;37940;53.002;6.930;2022-12-20T09:16:14;9.70;99.90
51914;DHT22;37940;53.002;6.930;2022-12-20T09:18:40;9.70;99.90
51914;DHT22;37940;53.002;6.930;2022-12-20T09:21:08;9.80;99.90
51914;DHT22;37940;53.002;6.930;2022-12-20T09:23:35;9.80;99.90
51914;DHT22;37940;53.002;6.930;2022-12-20T09:26:04;9.70;99.90
51914;DHT22;37940;53.002;6.930;2022-12-20T09:28:30;9.70;99.90
51914;DHT22;37940;53.002;6.930;2022-12-20T09:31:04;9.70;99.90
51914;DHT22;37940;53.002;6.930;2022-12-20T09:33:31;9.80;99.90
51914;DHT22;37940;53.002;6.930;2022-12-20T09:35:57;9.80;99.90
51914;DHT22;37940;53.002;6.930;2022-12-20T09:38:23;9.90;99.90
51914;DHT22;37940;53.002;6.930;2022-12-20T09:40:56;9.90;99.90
51914;DHT22;37940;53.002;6.930;2022-12-20T09:43:23;10.00;99.90
51914;DHT22;37940;53.002;6.930;2022-12-20T09:45:54;10.00;99.90
51914;DHT22;37940;53.002;6.930;2022-12-20T09:48:44;10.00;99.90
51914;DHT22;37940;53.002;6.930;2022-12-20T09:56:26;10.00;99.90
51914;DHT22;37940;53.002;6.930;2022-12-20T09:59:05;10.00;99.90
51914;DHT22;37940;53.002;6.930;2022-12-20T10:01:33;10.10;99.90
51914;DHT22;37940;53.002;6.930;2022-12-20T10:04:03;10.10;99.90
51914;DHT22;37940;53.002;6.930;2022-12-20T10:06:50;10.00;99.90
51914;DHT22;37940;53.002;6.930;2022-12-20T10:25:57;9.90;99.90
51914;DHT22;37940;53.002;6.930;2022-12-20T10:28:34;9.90;99.90
51914;DHT22;37940;53.002;6.930;2022-12-20T10:31:06;9.80;99.90
51914;DHT22;37940;53.002;6.930;2022-12-20T10:33:33;9.80;99.90
51914;DHT22;37940;53.002;6.930;2022-12-20T10:36:26;9.70;99.90
51914;DHT22;37940;53.002;6.930;2022-12-20T10:38:55;9.70;99.90
51914;DHT22;37940;53.002;6.930;2022-12-20T10:41:30;9.70;99.90
51914;DHT22;37940;53.002;6.930;2022-12-20T10:44:19;9.70;99.90
51914;DHT22;37940;53.002;6.930;2022-12-20T10:46:49;9.60;99.90
51914;DHT22;37940;53.002;6.930;2022-12-20T10:49:37;9.60;99.90
51914;DHT22;37940;53.002;6.930;2022-12-20T10:54:37;9.60;99.90
51914;DHT22;37940;53.002;6.930;2022-12-20T10:57:25;9.50;99.90
51914;DHT22;37940;53.002;6.930;2022-12-20T11:00:04;9.50;99.90
51914;DHT22;37940;53.002;6.930;2022-12-20T11:02:40;9.50;99.90
51914;DHT22;37940;53.002;6.930;2022-12-20T11:07:51;9.50;99.90
51914;DHT22;37940;53.002;6.930;2022-12-20T11:12:55;9.60;99.90
51914;DHT22;37940;53.002;6.930;2022-12-20T11:15:27;9.60;99.90
51914;DHT22;37940;53.002;6.930;2022-12-20T11:18:00;9.60;99.90
51914;DHT22;37940;53.002;6.930;2022-12-20T11:20:42;9.60;99.90
51914;DHT22;37940;53.002;6.930;2022-12-20T11:23:33;9.60;99.90
51914;DHT22;37940;53.002;6.930;2022-12-20T11:37:18;9.60;99.90
51914;DHT22;37940;53.002;6.930;2022-12-20T11:40:22;9.60;99.90
51914;DHT22;37940;53.002;6.930;2022-12-20T11:43:16;9.70;99.90
51914;DHT22;37940;53.002;6.930;2022-12-20T11:51:33;9.70;99.90
51914;DHT22;37940;53.002;6.930;2022-12-20T11:54:22;9.70;99.90
51914;DHT22;37940;53.002;6.930;2022-12-20T11:56:57;9.80;99.90
51914;DHT22;37940;53.002;6.930;2022-12-20T12:02:10;9.80;99.90
51914;DHT22;37940;53.002;6.930;2022-12-20T12:04:45;9.80;99.90
51914;DHT22;37940;53.002;6.930;2022-12-20T12:07:18;9.90;99.90
51914;DHT22;37940;53.002;6.930;2022-12-20T12:09:56;9.80;99.90
51914;DHT22;37940;53.002;6.930;2022-12-20T12:12:31;9.80;99.90
51914;DHT22;37940;53.002;6.930;2022-12-20T12:17:38;9.90;99.90
51914;DHT22;37940;53.002;6.930;2022-12-20T12:23:06;9.90;99.90
51914;DHT22;37940;53.002;6.930;2022-12-20T12:25:36;9.80;99.90
51914;DHT22;37940;53.002;6.930;2022-12-20T12:28:03;9.80;99.90
51914;DHT22;37940;53.002;6.930;2022-12-20T12:30:36;9.80;99.90
51914;DHT22;37940;53.002;6.930;2022-12-20T12:33:10;9.80;99.90
51914;DHT22;37940;53.002;6.930;2022-12-20T12:35:45;9.90;99.90
51914;DHT22;37940;53.002;6.930;2022-12-20T12:41:57;9.80;99.90
51914;DHT22;37940;53.002;6.930;2022-12-20T12:47:01;9.80;99.90
51914;DHT22;37940;53.002;6.930;2022-12-20T12:49:29;9.80;99.90
51914;DHT22;37940;53.002;6.930;2022-12-20T12:52:00;9.80;99.90
51914;DHT22;37940;53.002;6.930;2022-12-20T12:54:29;9.90;99.90
51914;DHT22;37940;53.002;6.930;2022-12-20T12:57:21;9.80;99.90
51914;DHT22;37940;53.002;6.930;2022-12-20T12:59:50;9.90;99.90
51914;DHT22;37940;53.002;6.930;2022-12-20T13:17:52;9.80;99.90
51914;DHT22;37940;53.002;6.930;2022-12-20T13:20:30;9.80;99.90
51914;DHT22;37940;53.002;6.930;2022-12-20T13:31:28;9.80;99.90
51914;DHT22;37940;53.002;6.930;2022-12-20T13:33:48;9.70;99.90
51914;DHT22;37940;53.002;6.930;2022-12-20T13:36:30;9.70;99.90
51914;DHT22;37940;53.002;6.930;2022-12-20T13:39:28;9.70;99.90
51914;DHT22;37940;53.002;6.930;2022-12-20T13:42:26;9.70;99.90
51914;DHT22;37940;53.002;6.930;2022-12-20T13:44:55;9.70;99.90
51914;DHT22;37940;53.002;6.930;2022-12-20T13:47:31;9.70;99.90
51914;DHT22;37940;53.002;6.930;2022-12-20T13:50:00;9.70;99.90
51914;DHT22;37940;53.002;6.930;2022-12-20T13:52:31;9.70;99.90
51914;DHT22;37940;53.002;6.930;2022-12-20T13:55:01;9.70;99.90
51914;DHT22;37940;53.002;6.930;2022-12-20T13:57:40;9.70;99.90
51914;DHT22;37940;53.002;6.930;2022-12-20T14:02:41;9.70;99.90
51914;DHT22;37940;53.002;6.930;2022-12-20T14:05:25;9.70;99.90
51914;DHT22;37940;53.002;6.930;2022-12-20T14:08:01;9.70;99.90
51914;DHT22;37940;53.002;6.930;2022-12-20T14:10:29;9.70;99.90
51914;DHT22;37940;53.002;6.930;2022-12-20T14:12:56;9.70;99.90
51914;DHT22;37940;53.002;6.930;2022-12-20T14:15:27;9.70;99.90
51914;DHT22;37940;53.002;6.930;2022-12-20T14:17:53;9.70;99.90
51914;DHT22;37940;53.002;6.930;2022-12-20T14:20:28;9.70;99.90
51914;DHT22;37940;53.002;6.930;2022-12-20T14:23:09;9.70;99.90
51914;DHT22;37940;53.002;6.930;2022-12-20T14:28:34;9.70;99.90
51914;DHT22;37940;53.002;6.930;2022-12-20T14:31:02;9.70;99.90
51914;DHT22;37940;53.002;6.930;2022-12-20T14:33:35;9.70;99.90
51914;DHT22;37940;53.002;6.930;2022-12-20T14:36:17;9.70;99.90
51914;DHT22;37940;53.002;6.930;2022-12-20T14:38:49;9.70;99.90
51914;DHT22;37940;53.002;6.930;2022-12-20T14:41:34;9.70;99.90
51914;DHT22;37940;53.002;6.930;2022-12-20T14:44:16;9.70;99.90
51914;DHT22;37940;53.002;6.930;2022-12-20T14:46:56;9.70;99.90
51914;DHT22;37940;53.002;6.930;2022-12-20T14:49:26;9.70;99.90
51914;DHT22;37940;53.002;6.930;2022-12-20T14:52:14;9.70;99.90
51914;DHT22;37940;53.002;6.930;2022-12-20T15:02:56;9.70;99.90
51914;DHT22;37940;53.002;6.930;2022-12-20T15:10:46;9.70;99.90
51914;DHT22;37940;53.002;6.930;2022-12-20T15:13:14;9.70;99.90
51914;DHT22;37940;53.002;6.930;2022-12-20T15:15:41;9.70;99.90
51914;DHT22;37940;53.002;6.930;2022-12-20T15:18:14;9.70;99.90
51914;DHT22;37940;53.002;6.930;2022-12-20T15:20:42;9.70;99.90
51914;DHT22;37940;53.002;6.930;2022-12-20T15:23:13;9.70;99.90
51914;DHT22;37940;53.002;6.930;2022-12-20T15:25:39;9.70;99.90
51914;DHT22;37940;53.002;6.930;2022-12-20T15:28:20;9.70;99.90
51914;DHT22;37940;53.002;6.930;2022-12-20T15:30:47;9.70;99.90
51914;DHT22;37940;53.002;6.930;2022-12-20T15:33:19;9.70;99.90
51914;DHT22;37940;53.002;6.930;2022-12-20T15:35:46;9.70;99.90
51914;DHT22;37940;53.002;6.930;2022-12-20T15:38:18;9.70;99.90
51914;DHT22;37940;53.002;6.930;2022-12-20T15:40:46;9.70;99.90
51914;DHT22;37940;53.002;6.930;2022-12-20T15:43:14;9.70;99.90
51914;DHT22;37940;53.002;6.930;2022-12-20T15:45:43;9.70;99.90
51914;DHT22;37940;53.002;6.930;2022-12-20T15:48:14;9.70;99.90
51914;DHT22;37940;53.002;6.930;2022-12-20T15:50:43;9.70;99.90
51914;DHT22;37940;53.002;6.930;2022-12-20T15:53:14;9.70;99.90
51914;DHT22;37940;53.002;6.930;2022-12-20T15:55:40;9.70;99.90
51914;DHT22;37940;53.002;6.930;2022-12-20T15:58:06;9.70;99.90
51914;DHT22;37940;53.002;6.930;2022-12-20T16:00:32;9.70;99.90
51914;DHT22;37940;53.002;6.930;2022-12-20T16:02:57;9.70;99.90
51914;DHT22;37940;53.002;6.930;2022-12-20T16:05:25;9.70;99.90
51914;DHT22;37940;53.002;6.930;2022-12-20T16:07:51;9.80;99.90
51914;DHT22;37940;53.002;6.930;2022-12-20T16:10:17;9.70;99.90
51914;DHT22;37940;53.002;6.930;2022-12-20T16:12:43;9.70;99.90
51914;DHT22;37940;53.002;6.930;2022-12-20T16:15:20;9.80;99.90
51914;DHT22;37940;53.002;6.930;2022-12-20T16:17:46;9.70;99.90
51914;DHT22;37940;53.002;6.930;2022-12-20T16:20:12;9.70;99.90
51914;DHT22;37940;53.002;6.930;2022-12-20T16:22:38;9.70;99.90
51914;DHT22;37940;53.002;6.930;2022-12-20T16:25:04;9.70;99.90
51914;DHT22;37940;53.002;6.930;2022-12-20T16:27:30;9.70;99.90
51914;DHT22;37940;53.002;6.930;2022-12-20T16:29:55;9.70;99.90
51914;DHT22;37940;53.002;6.930;2022-12-20T16:32:21;9.70;99.90
51914;DHT22;37940;53.002;6.930;2022-12-20T16:34:51;9.70;99.90
51914;DHT22;37940;53.002;6.930;2022-12-20T16:37:17;9.70;99.90
51914;DHT22;37940;53.002;6.930;2022-12-20T16:39:46;9.70;99.90
51914;DHT22;37940;53.002;6.930;2022-12-20T16:42:16;9.70;99.90
51914;DHT22;37940;53.002;6.930;2022-12-20T16:44:43;9.70;99.90
51914;DHT22;37940;53.002;6.930;2022-12-20T16:47:10;9.70;99.90
51914;DHT22;37940;53.002;6.930;2022-12-20T16:49:36;9.70;99.90
51914;DHT22;37940;53.002;6.930;2022-12-20T16:52:03;9.70;99.90
51914;DHT22;37940;53.002;6.930;2022-12-20T16:54:31;9.70;99.90
51914;DHT22;37940;53.002;6.930;2022-12-20T16:56:56;9.70;99.90
51914;DHT22;37940;53.002;6.930;2022-12-20T16:59:23;9.70;99.90
51914;DHT22;37940;53.002;6.930;2022-12-20T17:01:52;9.70;99.90
51914;DHT22;37940;53.002;6.930;2022-12-20T17:04:19;9.70;99.90
51914;DHT22;37940;53.002;6.930;2022-12-20T17:06:45;9.70;99.90
51914;DHT22;37940;53.002;6.930;2022-12-20T17:09:12;9.70;99.90
51914;DHT22;37940;53.002;6.930;2022-12-20T17:11:38;9.70;99.90
51914;DHT22;37940;53.002;6.930;2022-12-20T17:14:04;9.70;99.90
51914;DHT22;37940;53.002;6.930;2022-12-20T17:16:29;9.70;99.90
51914;DHT22;37940;53.002;6.930;2022-12-20T17:18:56;9.70;99.90
51914;DHT22;37940;53.002;6.930;2022-12-20T17:23:48;9.70;99.90
51914;DHT22;37940;53.002;6.930;2022-12-20T17:26:37;9.70;99.90
51914;DHT22;37940;53.002;6.930;2022-12-20T17:29:03;9.70;99.90
51914;DHT22;37940;53.002;6.930;2022-12-20T17:31:42;9.70;99.90
51914;DHT22;37940;53.002;6.930;2022-12-20T17:34:20;9.70;99.90
51914;DHT22;37940;53.002;6.930;2022-12-20T17:36:48;9.70;99.90
51914;DHT22;37940;53.002;6.930;2022-12-20T17:39:14;9.60;99.90
51914;DHT22;37940;53.002;6.930;2022-12-20T17:41:41;9.70;99.90
51914;DHT22;37940;53.002;6.930;2022-12-20T17:44:18;9.70;99.90
51914;DHT22;37940;53.002;6.930;2022-12-20T17:47:03;9.70;99.90
51914;DHT22;37940;53.002;6.930;2022-12-20T17:49:29;9.70;99.90
51914;DHT22;37940;53.002;6.930;2022-12-20T17:51:55;10.00;99.90
51914;DHT22;37940;53.002;6.930;2022-12-20T17:54:23;9.60;99.90
51914;DHT22;37940;53.002;6.930;2022-12-20T17:56:49;9.60;99.90
51914;DHT22;37940;53.002;6.930;2022-12-20T17:59:15;9.60;99.90
51914;DHT22;37940;53.002;6.930;2022-12-20T18:01:42;9.60;99.90